CMB weather

Bandaranaike International Colombo Airport
Colombo, Western Province, Sri Lanka

Public forecast

Using degrees Celsius for public forecast. Weather courtesy of forecast.io.

METAR (pilot weather report)

Retrieved 2017/01/20 05:10 UTC (27 minutes ago):

VCBI 200510Z 02012KT 9000 BKN017 28/20 Q1013 NOSIG

TAF (pilot weather forecast)

Forecast is more than 6 hours old.

Retrieved 2017/01/19 18:00 UTC (12 hours ago):

TAF VCBI 191540Z 1918/2024 03012G22KT 9999 FEW018 TX33/2008Z TN22/2000Z TEMPO 2007/2012 35012KT